Ohio — C6XL7 — position and weather

sailwx.info

Track history (hours):
 
Tides and Currents Weather Stations Pressure Air Temp Water Temp Dewpoint Dewpoint Depression Visibility Wind Speed Wind Dir Waves Ship Positions

Ohio

Last reported at 2018-Jun-24 23:40 UTC. Time now 2018-Jun-25 01:47 UTC.
Position N 35°56' W 000°13'.

Length 244 m; draft 8.8 m.

Type: Ship (hazmat cat A). MMSI: 311013400.

Date/timePositionNaut miles runAvg speedWind from/ knotsBaromVisibWave heightAir tempDewpointWater temp
2018-Jun-24 23:40N 35°56' W 000°13'0 1.3
2018-Jun-24 23:30N 35°56' W 000°13'2 4.1
2018-Jun-24 23:00N 35°55' W 000°14'1 1.1
2018-Jun-24 22:04N 35°55' W 000°14'1 1.2
2018-Jun-24 21:35N 35°56' W 000°13'0 2.6
2018-Jun-24 21:30N 35°56' W 000°13'16 5.0
2018-Jun-24 18:13N 36°06' W 000°29'1 5.4
2018-Jun-24 18:00N 36°06' W 000°30'3 5.3
2018-Jun-24 17:26N 36°06' W 000°34'2 5.5
2018-Jun-24 16:59N 36°06' W 000°37'3 5.9
2018-Jun-24 16:30N 36°06' W 000°41'3 5.9
2018-Jun-24 15:58N 36°06' W 000°44'  
2018-Jun-17 08:32N 36°12' W 004°56'0 0.7
2018-Jun-17 08:23N 36°12' W 004°56'0 0.7
2018-Jun-17 07:59N 36°12' W 004°56'1 0.9
2018-Jun-17 06:25N 36°11' W 004°58'1 1.1
2018-Jun-17 05:52N 36°11' W 004°59'1 1.2
2018-Jun-17 05:23N 36°11' W 004°59'2 1.2
2018-Jun-17 03:28N 36°09' W 005°01'1 1.1
2018-Jun-17 02:59N 36°09' W 005°02'0 0.9
2018-Jun-17 02:29N 36°08' W 005°02'0 0.7
2018-Jun-17 01:58N 36°08' W 005°02'2 0.4
2018-Jun-16 20:31N 36°07' W 005°04'0 1.7
2018-Jun-16 20:30N 36°07' W 005°04'1 1.7
2018-Jun-16 20:00N 36°07' W 005°05'1 1.8
2018-Jun-16 19:29N 36°07' W 005°06'1 1.8
2018-Jun-16 19:00N 36°07' W 005°07'1 1.8
2018-Jun-16 18:30N 36°07' W 005°08'1 1.8
2018-Jun-16 17:57N 36°07' W 005°10'1 1.7
2018-Jun-16 17:27N 36°07' W 005°11'1 1.3
2018-Jun-16 16:44N 36°07' W 005°12'0 0.8
2018-Jun-16 16:30N 36°07' W 005°12'2 2.6
2018-Jun-16 15:44N 36°07' W 005°14'2 9.2
2018-Jun-16 15:30N 36°05' W 005°16'5 9.6
2018-Jun-16 15:00N 36°03' W 005°21'1 2.8
2018-Jun-16 14:30N 36°04' W 005°23'0 0.4
2018-Jun-16 14:00N 36°04' W 005°23'0 0.5
2018-Jun-16 13:30N 36°04' W 005°23'2 3.9
2018-Jun-16 12:59N 36°06' W 005°23'3 6.9
2018-Jun-16 12:30N 36°09' W 005°24'1 0.3
2018-Jun-16 09:35N 36°10' W 005°25'0 0.1
2018-Jun-16 06:14N 36°10' W 005°25'0 0.2
2018-Jun-16 05:50N 36°10' W 005°25'0 0.0
2018-Jun-16 04:41N 36°10' W 005°25'0 0.1
2018-Jun-16 04:26N 36°10' W 005°25'0 0.4
2018-Jun-16 03:56N 36°10' W 005°25'0 0.1
2018-Jun-16 03:23N 36°10' W 005°25'0 0.1
2018-Jun-16 02:59N 36°10' W 005°25'0 0.2
2018-Jun-16 02:26N 36°10' W 005°25'0 0.2
2018-Jun-16 01:56N 36°10' W 005°25'0 0.2
2018-Jun-16 01:14N 36°10' W 005°25'0 0.3
2018-Jun-16 00:59N 36°10' W 005°25'0 0.1
2018-Jun-16 00:26N 36°10' W 005°25'0 0.1
2018-Jun-15 23:56N 36°10' W 005°25'0 0.1
2018-Jun-15 23:29N 36°10' W 005°25'0 0.1
2018-Jun-15 22:56N 36°10' W 005°25'0 0.0
2018-Jun-15 22:26N 36°10' W 005°25'0 0.0
2018-Jun-15 21:56N 36°10' W 005°25'0 0.1
2018-Jun-15 21:26N 36°10' W 005°25'0 0.0
2018-Jun-15 20:47N 36°10' W 005°25'0 0.2
2018-Jun-15 20:26N 36°10' W 005°25'0 0.2
2018-Jun-15 19:50N 36°10' W 005°25'0 0.1
2018-Jun-15 19:26N 36°10' W 005°25'0 0.1
2018-Jun-15 18:56N 36°10' W 005°25'0 0.2
2018-Jun-15 18:26N 36°10' W 005°25'0 0.2
2018-Jun-15 17:59N 36°10' W 005°25'0 0.1
2018-Jun-15 17:29N 36°10' W 005°25'3 1.1
2018-Jun-15 14:56N 36°07' W 005°24'0 0.0
2018-Jun-15 05:32N 36°07' W 005°25'0 0.3
2018-Jun-15 05:26N 36°07' W 005°24'0 0.2
2018-Jun-15 04:56N 36°07' W 005°24'0 0.2
2018-Jun-15 04:26N 36°07' W 005°25'0 0.5
2018-Jun-15 03:56N 36°07' W 005°24'0 0.2
2018-Jun-15 03:26N 36°07' W 005°24'0 0.2
2018-Jun-15 02:56N 36°07' W 005°24'0 0.2
2018-Jun-15 02:29N 36°07' W 005°25'0 0.2
2018-Jun-15 01:53N 36°07' W 005°24'0 0.2
2018-Jun-15 01:26N 36°07' W 005°24'0 0.1
2018-Jun-15 00:56N 36°07' W 005°24'0 0.2
2018-Jun-15 00:26N 36°07' W 005°24'0 0.1
2018-Jun-14 23:56N 36°07' W 005°24'  
Track history (hours):
 
Tides and Currents Weather Stations Pressure Air Temp Water Temp Dewpoint Dewpoint Depression Visibility Wind Speed Wind Dir Waves Ship Positions

Ohio

Last reported at 2018-Jun-24 23:40 UTC. Time now 2018-Jun-25 01:47 UTC.
Position N 35°56' W 000°13'.

Length 244 m; draft 8.8 m.

Type: Ship (hazmat cat A). MMSI: 311013400.

Date/timePositionNaut miles runAvg speedWind from/ knotsBaromVisibWave heightAir tempDewpointWater temp
2018-Jun-24 23:40N 35°56' W 000°13'0 1.3
2018-Jun-24 23:30N 35°56' W 000°13'2 4.1
2018-Jun-24 23:00N 35°55' W 000°14'1 1.1
2018-Jun-24 22:04N 35°55' W 000°14'1 1.2
2018-Jun-24 21:35N 35°56' W 000°13'0 2.6
2018-Jun-24 21:30N 35°56' W 000°13'16 5.0
2018-Jun-24 18:13N 36°06' W 000°29'1 5.4
2018-Jun-24 18:00N 36°06' W 000°30'3 5.3
2018-Jun-24 17:26N 36°06' W 000°34'2 5.5
2018-Jun-24 16:59N 36°06' W 000°37'3 5.9
2018-Jun-24 16:30N 36°06' W 000°41'3 5.9
2018-Jun-24 15:58N 36°06' W 000°44'  
2018-Jun-17 08:32N 36°12' W 004°56'0 0.7
2018-Jun-17 08:23N 36°12' W 004°56'0 0.7
2018-Jun-17 07:59N 36°12' W 004°56'1 0.9
2018-Jun-17 06:25N 36°11' W 004°58'1 1.1
2018-Jun-17 05:52N 36°11' W 004°59'1 1.2
2018-Jun-17 05:23N 36°11' W 004°59'2 1.2
2018-Jun-17 03:28N 36°09' W 005°01'1 1.1
2018-Jun-17 02:59N 36°09' W 005°02'0 0.9
2018-Jun-17 02:29N 36°08' W 005°02'0 0.7
2018-Jun-17 01:58N 36°08' W 005°02'2 0.4
2018-Jun-16 20:31N 36°07' W 005°04'0 1.7
2018-Jun-16 20:30N 36°07' W 005°04'1 1.7
2018-Jun-16 20:00N 36°07' W 005°05'1 1.8
2018-Jun-16 19:29N 36°07' W 005°06'1 1.8
2018-Jun-16 19:00N 36°07' W 005°07'1 1.8
2018-Jun-16 18:30N 36°07' W 005°08'1 1.8
2018-Jun-16 17:57N 36°07' W 005°10'1 1.7
2018-Jun-16 17:27N 36°07' W 005°11'1 1.3
2018-Jun-16 16:44N 36°07' W 005°12'0 0.8
2018-Jun-16 16:30N 36°07' W 005°12'2 2.6
2018-Jun-16 15:44N 36°07' W 005°14'2 9.2
2018-Jun-16 15:30N 36°05' W 005°16'5 9.6
2018-Jun-16 15:00N 36°03' W 005°21'1 2.8
2018-Jun-16 14:30N 36°04' W 005°23'0 0.4
2018-Jun-16 14:00N 36°04' W 005°23'0 0.5
2018-Jun-16 13:30N 36°04' W 005°23'2 3.9
2018-Jun-16 12:59N 36°06' W 005°23'3 6.9
2018-Jun-16 12:30N 36°09' W 005°24'1 0.3
2018-Jun-16 09:35N 36°10' W 005°25'0 0.1
2018-Jun-16 06:14N 36°10' W 005°25'0 0.2
2018-Jun-16 05:50N 36°10' W 005°25'0 0.0
2018-Jun-16 04:41N 36°10' W 005°25'0 0.1
2018-Jun-16 04:26N 36°10' W 005°25'0 0.4
2018-Jun-16 03:56N 36°10' W 005°25'0 0.1
2018-Jun-16 03:23N 36°10' W 005°25'0 0.1
2018-Jun-16 02:59N 36°10' W 005°25'0 0.2
2018-Jun-16 02:26N 36°10' W 005°25'0 0.2
2018-Jun-16 01:56N 36°10' W 005°25'0 0.2
2018-Jun-16 01:14N 36°10' W 005°25'0 0.3
2018-Jun-16 00:59N 36°10' W 005°25'0 0.1
2018-Jun-16 00:26N 36°10' W 005°25'0 0.1
2018-Jun-15 23:56N 36°10' W 005°25'0 0.1
2018-Jun-15 23:29N 36°10' W 005°25'0 0.1
2018-Jun-15 22:56N 36°10' W 005°25'0 0.0
2018-Jun-15 22:26N 36°10' W 005°25'0 0.0
2018-Jun-15 21:56N 36°10' W 005°25'0 0.1
2018-Jun-15 21:26N 36°10' W 005°25'0 0.0
2018-Jun-15 20:47N 36°10' W 005°25'0 0.2
2018-Jun-15 20:26N 36°10' W 005°25'0 0.2
2018-Jun-15 19:50N 36°10' W 005°25'0 0.1
2018-Jun-15 19:26N 36°10' W 005°25'0 0.1
2018-Jun-15 18:56N 36°10' W 005°25'0 0.2
2018-Jun-15 18:26N 36°10' W 005°25'0 0.2
2018-Jun-15 17:59N 36°10' W 005°25'0 0.1
2018-Jun-15 17:29N 36°10' W 005°25'3 1.1
2018-Jun-15 14:56N 36°07' W 005°24'0 0.0
2018-Jun-15 05:32N 36°07' W 005°25'0 0.3
2018-Jun-15 05:26N 36°07' W 005°24'0 0.2
2018-Jun-15 04:56N 36°07' W 005°24'0 0.2
2018-Jun-15 04:26N 36°07' W 005°25'0 0.5
2018-Jun-15 03:56N 36°07' W 005°24'0 0.2
2018-Jun-15 03:26N 36°07' W 005°24'0 0.2
2018-Jun-15 02:56N 36°07' W 005°24'0 0.2
2018-Jun-15 02:29N 36°07' W 005°25'0 0.2
2018-Jun-15 01:53N 36°07' W 005°24'0 0.2
2018-Jun-15 01:26N 36°07' W 005°24'0 0.1
2018-Jun-15 00:56N 36°07' W 005°24'0 0.2
2018-Jun-15 00:26N 36°07' W 005°24'0 0.1
2018-Jun-14 23:56N 36°07' W 005°24'  

Dump ship's entire track history